sensor_id;sensor_type;location;lat;lon;timestamp;temperature;humidity
72440;DHT22;60446;50.752;4.352;2023-04-06T00:01:19;5.40;62.60
72440;DHT22;60446;50.752;4.352;2023-04-06T00:03:46;5.40;62.80
72440;DHT22;60446;50.752;4.352;2023-04-06T00:06:13;5.30;62.70
72440;DHT22;60446;50.752;4.352;2023-04-06T00:08:43;5.40;62.90
72440;DHT22;60446;50.752;4.352;2023-04-06T00:11:11;5.40;62.10
72440;DHT22;60446;50.752;4.352;2023-04-06T00:13:38;5.40;61.60
72440;DHT22;60446;50.752;4.352;2023-04-06T00:16:06;5.40;62.10
72440;DHT22;60446;50.752;4.352;2023-04-06T00:18:33;5.30;62.60
72440;DHT22;60446;50.752;4.352;2023-04-06T00:21:00;5.30;63.60
72440;DHT22;60446;50.752;4.352;2023-04-06T00:23:27;5.30;61.00
72440;DHT22;60446;50.752;4.352;2023-04-06T00:25:55;5.40;61.80
72440;DHT22;60446;50.752;4.352;2023-04-06T00:28:22;5.30;63.20
72440;DHT22;60446;50.752;4.352;2023-04-06T00:30:53;5.30;61.60
72440;DHT22;60446;50.752;4.352;2023-04-06T00:33:22;5.30;63.20
72440;DHT22;60446;50.752;4.352;2023-04-06T00:35:50;5.30;63.20
72440;DHT22;60446;50.752;4.352;2023-04-06T00:38:17;5.30;61.90
72440;DHT22;60446;50.752;4.352;2023-04-06T00:40:44;5.30;61.10
72440;DHT22;60446;50.752;4.352;2023-04-06T00:43:12;5.30;60.60
72440;DHT22;60446;50.752;4.352;2023-04-06T00:45:41;5.30;61.90
72440;DHT22;60446;50.752;4.352;2023-04-06T00:48:08;5.30;60.60
72440;DHT22;60446;50.752;4.352;2023-04-06T00:50:36;5.40;62.10
72440;DHT22;60446;50.752;4.352;2023-04-06T00:53:03;5.40;61.40
72440;DHT22;60446;50.752;4.352;2023-04-06T00:55:30;5.30;63.10
72440;DHT22;60446;50.752;4.352;2023-04-06T00:57:59;5.30;62.50
72440;DHT22;60446;50.752;4.352;2023-04-06T01:00:34;5.30;61.40
72440;DHT22;60446;50.752;4.352;2023-04-06T01:03:02;5.30;61.60
72440;DHT22;60446;50.752;4.352;2023-04-06T01:05:39;5.20;62.20
72440;DHT22;60446;50.752;4.352;2023-04-06T01:08:15;5.20;63.20
72440;DHT22;60446;50.752;4.352;2023-04-06T01:10:42;5.20;64.30
72440;DHT22;60446;50.752;4.352;2023-04-06T01:13:22;5.20;64.10
72440;DHT22;60446;50.752;4.352;2023-04-06T01:15:55;5.10;65.50
72440;DHT22;60446;50.752;4.352;2023-04-06T01:18:38;5.00;65.30
72440;DHT22;60446;50.752;4.352;2023-04-06T01:21:15;5.00;64.70
72440;DHT22;60446;50.752;4.352;2023-04-06T01:24:02;4.90;63.50
72440;DHT22;60446;50.752;4.352;2023-04-06T01:26:39;4.90;64.30
72440;DHT22;60446;50.752;4.352;2023-04-06T01:29:09;4.90;64.80
72440;DHT22;60446;50.752;4.352;2023-04-06T01:31:37;4.90;64.40
72440;DHT22;60446;50.752;4.352;2023-04-06T01:34:05;4.80;64.80
72440;DHT22;60446;50.752;4.352;2023-04-06T01:36:32;4.80;64.30
72440;DHT22;60446;50.752;4.352;2023-04-06T01:39:22;4.70;65.20
72440;DHT22;60446;50.752;4.352;2023-04-06T01:41:50;4.70;65.30
72440;DHT22;60446;50.752;4.352;2023-04-06T01:44:19;4.60;65.40
72440;DHT22;60446;50.752;4.352;2023-04-06T01:46:53;4.50;65.30
72440;DHT22;60446;50.752;4.352;2023-04-06T01:49:22;4.40;65.00
72440;DHT22;60446;50.752;4.352;2023-04-06T01:51:53;4.40;64.90
72440;DHT22;60446;50.752;4.352;2023-04-06T01:54:21;4.30;65.40
72440;DHT22;60446;50.752;4.352;2023-04-06T01:57:14;4.30;65.80
72440;DHT22;60446;50.752;4.352;2023-04-06T01:59:57;4.20;66.10
72440;DHT22;60446;50.752;4.352;2023-04-06T02:02:45;4.20;66.00
72440;DHT22;60446;50.752;4.352;2023-04-06T02:05:19;4.10;66.60
72440;DHT22;60446;50.752;4.352;2023-04-06T02:07:47;4.10;66.00
72440;DHT22;60446;50.752;4.352;2023-04-06T02:10:20;4.10;65.90
72440;DHT22;60446;50.752;4.352;2023-04-06T02:12:47;4.10;66.60
72440;DHT22;60446;50.752;4.352;2023-04-06T02:15:21;4.10;66.20
72440;DHT22;60446;50.752;4.352;2023-04-06T02:17:48;4.00;67.00
72440;DHT22;60446;50.752;4.352;2023-04-06T02:20:15;4.00;67.00
72440;DHT22;60446;50.752;4.352;2023-04-06T02:22:43;4.00;67.80
72440;DHT22;60446;50.752;4.352;2023-04-06T02:25:10;4.00;67.30
72440;DHT22;60446;50.752;4.352;2023-04-06T02:27:38;4.00;67.70
72440;DHT22;60446;50.752;4.352;2023-04-06T02:30:06;3.90;67.70
72440;DHT22;60446;50.752;4.352;2023-04-06T02:32:34;3.90;68.10
72440;DHT22;60446;50.752;4.352;2023-04-06T02:35:01;3.90;68.30
72440;DHT22;60446;50.752;4.352;2023-04-06T02:37:30;3.90;67.60
72440;DHT22;60446;50.752;4.352;2023-04-06T02:39:58;3.90;68.80
72440;DHT22;60446;50.752;4.352;2023-04-06T02:42:26;3.90;68.80
72440;DHT22;60446;50.752;4.352;2023-04-06T02:44:53;3.90;68.90
72440;DHT22;60446;50.752;4.352;2023-04-06T02:47:24;3.90;68.90
72440;DHT22;60446;50.752;4.352;2023-04-06T02:49:51;3.90;68.80
72440;DHT22;60446;50.752;4.352;2023-04-06T02:52:19;3.90;68.80
72440;DHT22;60446;50.752;4.352;2023-04-06T02:54:46;3.90;68.40
72440;DHT22;60446;50.752;4.352;2023-04-06T02:57:17;3.90;68.50
72440;DHT22;60446;50.752;4.352;2023-04-06T02:59:45;3.90;68.30
72440;DHT22;60446;50.752;4.352;2023-04-06T03:02:21;3.90;68.20
72440;DHT22;60446;50.752;4.352;2023-04-06T03:04:48;3.90;69.10
72440;DHT22;60446;50.752;4.352;2023-04-06T03:07:28;3.80;69.80
72440;DHT22;60446;50.752;4.352;2023-04-06T03:09:55;3.80;70.10
72440;DHT22;60446;50.752;4.352;2023-04-06T03:12:22;3.80;69.50
72440;DHT22;60446;50.752;4.352;2023-04-06T03:15:12;3.70;69.70
72440;DHT22;60446;50.752;4.352;2023-04-06T03:17:45;3.70;69.60
72440;DHT22;60446;50.752;4.352;2023-04-06T03:20:28;3.60;70.00
72440;DHT22;60446;50.752;4.352;2023-04-06T03:22:55;3.60;69.30
72440;DHT22;60446;50.752;4.352;2023-04-06T03:25:26;3.60;70.10
72440;DHT22;60446;50.752;4.352;2023-04-06T03:27:58;3.60;70.10
72440;DHT22;60446;50.752;4.352;2023-04-06T03:30:26;3.60;70.40
72440;DHT22;60446;50.752;4.352;2023-04-06T03:32:53;3.50;70.20
72440;DHT22;60446;50.752;4.352;2023-04-06T03:35:24;3.50;70.40
72440;DHT22;60446;50.752;4.352;2023-04-06T03:37:51;3.60;70.50
72440;DHT22;60446;50.752;4.352;2023-04-06T03:40:18;3.60;70.60
72440;DHT22;60446;50.752;4.352;2023-04-06T03:42:46;3.60;70.80
72440;DHT22;60446;50.752;4.352;2023-04-06T03:45:14;3.60;70.80
72440;DHT22;60446;50.752;4.352;2023-04-06T03:47:48;3.60;70.70
72440;DHT22;60446;50.752;4.352;2023-04-06T03:50:17;3.60;70.00
72440;DHT22;60446;50.752;4.352;2023-04-06T03:52:44;3.60;70.30
72440;DHT22;60446;50.752;4.352;2023-04-06T03:55:11;3.70;69.60
72440;DHT22;60446;50.752;4.352;2023-04-06T03:57:38;3.70;69.50
72440;DHT22;60446;50.752;4.352;2023-04-06T04:00:06;3.70;70.40
72440;DHT22;60446;50.752;4.352;2023-04-06T04:02:39;3.70;70.50
72440;DHT22;60446;50.752;4.352;2023-04-06T04:05:07;3.70;70.70
72440;DHT22;60446;50.752;4.352;2023-04-06T04:07:36;3.70;70.40
72440;DHT22;60446;50.752;4.352;2023-04-06T04:10:05;3.80;70.00
72440;DHT22;60446;50.752;4.352;2023-04-06T04:12:32;3.80;70.40
72440;DHT22;60446;50.752;4.352;2023-04-06T04:15:00;3.80;70.40
72440;DHT22;60446;50.752;4.352;2023-04-06T04:17:27;3.90;69.90
72440;DHT22;60446;50.752;4.352;2023-04-06T04:19:54;3.90;69.90
72440;DHT22;60446;50.752;4.352;2023-04-06T04:22:21;3.90;69.30
72440;DHT22;60446;50.752;4.352;2023-04-06T04:24:48;4.00;69.70
72440;DHT22;60446;50.752;4.352;2023-04-06T04:27:16;4.00;69.60
72440;DHT22;60446;50.752;4.352;2023-04-06T04:29:43;4.00;70.20
72440;DHT22;60446;50.752;4.352;2023-04-06T04:32:12;4.10;70.30
72440;DHT22;60446;50.752;4.352;2023-04-06T04:34:40;4.10;70.20
72440;DHT22;60446;50.752;4.352;2023-04-06T04:37:11;4.10;70.30
72440;DHT22;60446;50.752;4.352;2023-04-06T04:39:51;4.10;70.20
72440;DHT22;60446;50.752;4.352;2023-04-06T04:42:19;4.20;70.20
72440;DHT22;60446;50.752;4.352;2023-04-06T04:44:50;4.20;69.80
72440;DHT22;60446;50.752;4.352;2023-04-06T04:47:28;4.20;70.40
72440;DHT22;60446;50.752;4.352;2023-04-06T04:49:56;4.20;70.30
72440;DHT22;60446;50.752;4.352;2023-04-06T04:52:24;4.20;69.60
72440;DHT22;60446;50.752;4.352;2023-04-06T04:55:10;4.20;69.80
72440;DHT22;60446;50.752;4.352;2023-04-06T04:57:37;4.30;70.10
72440;DHT22;60446;50.752;4.352;2023-04-06T05:00:05;4.30;70.60
72440;DHT22;60446;50.752;4.352;2023-04-06T05:02:35;4.30;71.70
72440;DHT22;60446;50.752;4.352;2023-04-06T05:05:13;4.30;70.60
72440;DHT22;60446;50.752;4.352;2023-04-06T05:07:41;4.50;67.50
72440;DHT22;60446;50.752;4.352;2023-04-06T05:10:14;4.60;66.30
72440;DHT22;60446;50.752;4.352;2023-04-06T05:12:51;4.60;68.70
72440;DHT22;60446;50.752;4.352;2023-04-06T05:15:18;4.60;69.90
72440;DHT22;60446;50.752;4.352;2023-04-06T05:17:48;4.50;70.30
72440;DHT22;60446;50.752;4.352;2023-04-06T05:20:20;4.50;70.20
72440;DHT22;60446;50.752;4.352;2023-04-06T05:22:50;4.60;69.90
72440;DHT22;60446;50.752;4.352;2023-04-06T05:25:17;4.50;70.10
72440;DHT22;60446;50.752;4.352;2023-04-06T05:27:46;4.60;70.30
72440;DHT22;60446;50.752;4.352;2023-04-06T05:30:29;4.60;71.00
72440;DHT22;60446;50.752;4.352;2023-04-06T05:32:57;4.60;71.60
72440;DHT22;60446;50.752;4.352;2023-04-06T05:35:31;4.60;71.50
72440;DHT22;60446;50.752;4.352;2023-04-06T05:38:08;4.60;71.30
72440;DHT22;60446;50.752;4.352;2023-04-06T05:40:37;4.70;70.70
72440;DHT22;60446;50.752;4.352;2023-04-06T05:43:11;4.70;70.70
72440;DHT22;60446;50.752;4.352;2023-04-06T05:45:44;4.80;70.70
72440;DHT22;60446;50.752;4.352;2023-04-06T05:48:12;4.90;70.10
72440;DHT22;60446;50.752;4.352;2023-04-06T05:50:39;4.90;70.90
72440;DHT22;60446;50.752;4.352;2023-04-06T05:53:09;4.90;70.80
72440;DHT22;60446;50.752;4.352;2023-04-06T05:55:40;5.00;71.50
72440;DHT22;60446;50.752;4.352;2023-04-06T05:58:15;5.10;71.30
72440;DHT22;60446;50.752;4.352;2023-04-06T06:00:44;5.10;70.90
72440;DHT22;60446;50.752;4.352;2023-04-06T06:03:14;5.30;68.80
72440;DHT22;60446;50.752;4.352;2023-04-06T06:05:47;5.40;70.50
72440;DHT22;60446;50.752;4.352;2023-04-06T06:08:21;5.50;69.60
72440;DHT22;60446;50.752;4.352;2023-04-06T06:10:49;5.60;68.20
72440;DHT22;60446;50.752;4.352;2023-04-06T06:13:20;5.60;68.50
72440;DHT22;60446;50.752;4.352;2023-04-06T06:15:47;5.70;67.00
72440;DHT22;60446;50.752;4.352;2023-04-06T06:18:16;5.80;66.80
72440;DHT22;60446;50.752;4.352;2023-04-06T06:20:44;5.80;67.50
72440;DHT22;60446;50.752;4.352;2023-04-06T06:23:11;5.90;66.70
72440;DHT22;60446;50.752;4.352;2023-04-06T06:25:39;5.90;66.60
72440;DHT22;60446;50.752;4.352;2023-04-06T06:28:06;6.00;68.30
72440;DHT22;60446;50.752;4.352;2023-04-06T06:30:34;5.90;67.30
72440;DHT22;60446;50.752;4.352;2023-04-06T06:33:01;6.00;69.70
72440;DHT22;60446;50.752;4.352;2023-04-06T06:35:30;6.00;70.60
72440;DHT22;60446;50.752;4.352;2023-04-06T06:38:01;6.00;70.70
72440;DHT22;60446;50.752;4.352;2023-04-06T06:40:28;6.00;70.90
72440;DHT22;60446;50.752;4.352;2023-04-06T06:42:56;6.10;72.30
72440;DHT22;60446;50.752;4.352;2023-04-06T06:45:47;6.10;72.20
72440;DHT22;60446;50.752;4.352;2023-04-06T06:48:14;6.10;73.40
72440;DHT22;60446;50.752;4.352;2023-04-06T06:50:41;6.20;74.60
72440;DHT22;60446;50.752;4.352;2023-04-06T06:53:08;6.20;74.60
72440;DHT22;60446;50.752;4.352;2023-04-06T06:55:36;6.20;74.80
72440;DHT22;60446;50.752;4.352;2023-04-06T06:58:03;6.10;74.30
72440;DHT22;60446;50.752;4.352;2023-04-06T07:00:31;6.10;74.80
72440;DHT22;60446;50.752;4.352;2023-04-06T07:02:59;6.20;76.10
72440;DHT22;60446;50.752;4.352;2023-04-06T07:05:26;6.20;75.10
72440;DHT22;60446;50.752;4.352;2023-04-06T07:07:57;6.30;75.50
72440;DHT22;60446;50.752;4.352;2023-04-06T07:10:25;6.30;74.90
72440;DHT22;60446;50.752;4.352;2023-04-06T07:12:53;6.40;75.40
72440;DHT22;60446;50.752;4.352;2023-04-06T07:15:20;6.50;75.50
72440;DHT22;60446;50.752;4.352;2023-04-06T07:17:48;6.60;75.50
72440;DHT22;60446;50.752;4.352;2023-04-06T07:20:16;6.60;76.00
72440;DHT22;60446;50.752;4.352;2023-04-06T07:22:43;6.60;75.70
72440;DHT22;60446;50.752;4.352;2023-04-06T07:25:15;6.50;74.90
72440;DHT22;60446;50.752;4.352;2023-04-06T07:27:42;6.50;76.50
72440;DHT22;60446;50.752;4.352;2023-04-06T07:30:10;6.40;76.30
72440;DHT22;60446;50.752;4.352;2023-04-06T07:32:38;6.50;77.50
72440;DHT22;60446;50.752;4.352;2023-04-06T07:35:05;6.40;76.80
72440;DHT22;60446;50.752;4.352;2023-04-06T07:37:33;6.50;77.50
72440;DHT22;60446;50.752;4.352;2023-04-06T07:40:00;6.50;76.50
72440;DHT22;60446;50.752;4.352;2023-04-06T07:42:29;6.50;77.40
72440;DHT22;60446;50.752;4.352;2023-04-06T07:44:56;6.70;78.20
72440;DHT22;60446;50.752;4.352;2023-04-06T07:47:23;6.70;77.50
72440;DHT22;60446;50.752;4.352;2023-04-06T07:49:51;6.70;77.40
72440;DHT22;60446;50.752;4.352;2023-04-06T07:52:18;6.70;77.40
72440;DHT22;60446;50.752;4.352;2023-04-06T07:54:45;6.70;77.70
72440;DHT22;60446;50.752;4.352;2023-04-06T07:57:12;6.80;78.50
72440;DHT22;60446;50.752;4.352;2023-04-06T07:59:40;6.80;78.30
72440;DHT22;60446;50.752;4.352;2023-04-06T08:02:07;6.80;78.70
72440;DHT22;60446;50.752;4.352;2023-04-06T08:04:35;6.80;78.40
72440;DHT22;60446;50.752;4.352;2023-04-06T08:07:03;6.80;78.90
72440;DHT22;60446;50.752;4.352;2023-04-06T08:09:30;6.80;78.60
72440;DHT22;60446;50.752;4.352;2023-04-06T08:11:57;6.90;79.50
72440;DHT22;60446;50.752;4.352;2023-04-06T08:14:24;6.90;78.80
72440;DHT22;60446;50.752;4.352;2023-04-06T08:16:51;6.90;79.10
72440;DHT22;60446;50.752;4.352;2023-04-06T08:19:18;6.90;79.70
72440;DHT22;60446;50.752;4.352;2023-04-06T08:21:46;6.80;79.50
72440;DHT22;60446;50.752;4.352;2023-04-06T08:24:14;6.80;80.40
72440;DHT22;60446;50.752;4.352;2023-04-06T08:26:42;6.90;79.90
72440;DHT22;60446;50.752;4.352;2023-04-06T08:29:09;6.90;80.10
72440;DHT22;60446;50.752;4.352;2023-04-06T08:31:36;7.00;80.10
72440;DHT22;60446;50.752;4.352;2023-04-06T08:34:04;6.90;80.10
72440;DHT22;60446;50.752;4.352;2023-04-06T08:36:33;6.90;79.30
72440;DHT22;60446;50.752;4.352;2023-04-06T08:39:00;6.90;79.90
72440;DHT22;60446;50.752;4.352;2023-04-06T08:41:27;6.90;79.60
72440;DHT22;60446;50.752;4.352;2023-04-06T08:44:00;6.90;80.50
72440;DHT22;60446;50.752;4.352;2023-04-06T08:46:30;6.90;80.50
72440;DHT22;60446;50.752;4.352;2023-04-06T08:48:59;7.00;80.70
72440;DHT22;60446;50.752;4.352;2023-04-06T08:51:28;7.00;80.80
72440;DHT22;60446;50.752;4.352;2023-04-06T08:53:58;6.90;79.30
72440;DHT22;60446;50.752;4.352;2023-04-06T08:56:27;6.90;80.40
72440;DHT22;60446;50.752;4.352;2023-04-06T08:58:55;6.90;79.70
72440;DHT22;60446;50.752;4.352;2023-04-06T09:01:26;6.90;80.90
72440;DHT22;60446;50.752;4.352;2023-04-06T09:03:59;6.90;80.50
72440;DHT22;60446;50.752;4.352;2023-04-06T09:06:27;6.90;80.50
72440;DHT22;60446;50.752;4.352;2023-04-06T09:08:54;7.00;79.90
72440;DHT22;60446;50.752;4.352;2023-04-06T09:11:22;7.00;80.30
72440;DHT22;60446;50.752;4.352;2023-04-06T09:13:54;7.10;80.80
72440;DHT22;60446;50.752;4.352;2023-04-06T09:16:23;7.10;80.70
72440;DHT22;60446;50.752;4.352;2023-04-06T09:18:52;7.20;79.80
72440;DHT22;60446;50.752;4.352;2023-04-06T09:21:19;7.20;79.90
72440;DHT22;60446;50.752;4.352;2023-04-06T09:24:01;7.10;80.50
72440;DHT22;60446;50.752;4.352;2023-04-06T09:26:29;7.20;80.60
72440;DHT22;60446;50.752;4.352;2023-04-06T09:28:58;7.20;80.70
72440;DHT22;60446;50.752;4.352;2023-04-06T09:31:29;7.20;79.20
72440;DHT22;60446;50.752;4.352;2023-04-06T09:34:01;7.20;80.40
72440;DHT22;60446;50.752;4.352;2023-04-06T09:36:36;7.10;80.80
72440;DHT22;60446;50.752;4.352;2023-04-06T09:39:08;7.10;80.10
72440;DHT22;60446;50.752;4.352;2023-04-06T09:41:36;7.10;80.60
72440;DHT22;60446;50.752;4.352;2023-04-06T09:44:11;7.10;80.30
72440;DHT22;60446;50.752;4.352;2023-04-06T09:46:41;7.10;80.00
72440;DHT22;60446;50.752;4.352;2023-04-06T09:49:30;7.10;80.50
72440;DHT22;60446;50.752;4.352;2023-04-06T09:52:09;7.10;80.10
72440;DHT22;60446;50.752;4.352;2023-04-06T09:54:38;7.10;80.50
72440;DHT22;60446;50.752;4.352;2023-04-06T09:57:26;7.00;79.50
72440;DHT22;60446;50.752;4.352;2023-04-06T10:00:07;7.00;81.20
72440;DHT22;60446;50.752;4.352;2023-04-06T10:02:50;7.00;80.80
72440;DHT22;60446;50.752;4.352;2023-04-06T10:06:13;7.00;81.00
72440;DHT22;60446;50.752;4.352;2023-04-06T10:08:33;7.00;81.70
72440;DHT22;60446;50.752;4.352;2023-04-06T10:11:02;7.10;80.90
72440;DHT22;60446;50.752;4.352;2023-04-06T10:13:29;7.20;81.20
72440;DHT22;60446;50.752;4.352;2023-04-06T10:15:57;7.30;81.40
72440;DHT22;60446;50.752;4.352;2023-04-06T10:18:27;7.40;81.40
72440;DHT22;60446;50.752;4.352;2023-04-06T10:21:14;7.50;81.90
72440;DHT22;60446;50.752;4.352;2023-04-06T10:23:48;7.60;81.10
72440;DHT22;60446;50.752;4.352;2023-04-06T10:26:20;7.70;80.10
72440;DHT22;60446;50.752;4.352;2023-04-06T10:28:49;7.80;81.10
72440;DHT22;60446;50.752;4.352;2023-04-06T10:31:27;7.70;79.00
72440;DHT22;60446;50.752;4.352;2023-04-06T10:34:02;7.70;80.80
72440;DHT22;60446;50.752;4.352;2023-04-06T10:36:34;7.80;80.70
72440;DHT22;60446;50.752;4.352;2023-04-06T10:39:04;7.90;80.20
72440;DHT22;60446;50.752;4.352;2023-04-06T10:41:50;7.90;79.70
72440;DHT22;60446;50.752;4.352;2023-04-06T10:44:21;7.90;80.00
72440;DHT22;60446;50.752;4.352;2023-04-06T10:46:57;7.80;79.80
72440;DHT22;60446;50.752;4.352;2023-04-06T10:49:29;7.80;80.80
72440;DHT22;60446;50.752;4.352;2023-04-06T10:51:57;7.80;81.50
72440;DHT22;60446;50.752;4.352;2023-04-06T10:54:26;7.70;80.10
72440;DHT22;60446;50.752;4.352;2023-04-06T10:56:53;7.60;80.10
72440;DHT22;60446;50.752;4.352;2023-04-06T10:59:23;7.60;80.80
72440;DHT22;60446;50.752;4.352;2023-04-06T11:01:52;7.50;80.60
72440;DHT22;60446;50.752;4.352;2023-04-06T11:04:20;7.50;80.90
72440;DHT22;60446;50.752;4.352;2023-04-06T11:06:49;7.50;80.20
72440;DHT22;60446;50.752;4.352;2023-04-06T11:09:27;7.50;81.00
72440;DHT22;60446;50.752;4.352;2023-04-06T11:11:55;7.50;80.90
72440;DHT22;60446;50.752;4.352;2023-04-06T11:14:23;7.50;81.20
72440;DHT22;60446;50.752;4.352;2023-04-06T11:16:51;7.50;80.70
72440;DHT22;60446;50.752;4.352;2023-04-06T11:19:19;7.50;80.00
72440;DHT22;60446;50.752;4.352;2023-04-06T11:21:47;7.50;80.80
72440;DHT22;60446;50.752;4.352;2023-04-06T11:24:23;7.40;80.20
72440;DHT22;60446;50.752;4.352;2023-04-06T11:26:55;7.40;80.80
72440;DHT22;60446;50.752;4.352;2023-04-06T11:29:25;7.50;80.80
72440;DHT22;60446;50.752;4.352;2023-04-06T11:32:01;7.60;80.90
72440;DHT22;60446;50.752;4.352;2023-04-06T11:34:36;7.60;80.60
72440;DHT22;60446;50.752;4.352;2023-04-06T11:37:10;7.70;80.90
72440;DHT22;60446;50.752;4.352;2023-04-06T11:42:07;7.90;80.80
72440;DHT22;60446;50.752;4.352;2023-04-06T11:44:42;7.90;80.10
72440;DHT22;60446;50.752;4.352;2023-04-06T11:47:13;7.80;80.80
72440;DHT22;60446;50.752;4.352;2023-04-06T11:49:42;7.70;81.20
72440;DHT22;60446;50.752;4.352;2023-04-06T11:52:29;7.70;81.80
72440;DHT22;60446;50.752;4.352;2023-04-06T11:54:57;7.80;82.60
72440;DHT22;60446;50.752;4.352;2023-04-06T11:57:24;7.80;81.60
72440;DHT22;60446;50.752;4.352;2023-04-06T11:59:52;7.80;81.60
72440;DHT22;60446;50.752;4.352;2023-04-06T12:02:20;7.80;82.30
72440;DHT22;60446;50.752;4.352;2023-04-06T12:04:47;7.90;81.80
72440;DHT22;60446;50.752;4.352;2023-04-06T12:07:15;8.00;82.70
72440;DHT22;60446;50.752;4.352;2023-04-06T12:09:42;8.20;81.90
72440;DHT22;60446;50.752;4.352;2023-04-06T12:12:10;8.30;81.00
72440;DHT22;60446;50.752;4.352;2023-04-06T12:14:37;8.40;80.90
72440;DHT22;60446;50.752;4.352;2023-04-06T12:17:04;8.30;80.50
72440;DHT22;60446;50.752;4.352;2023-04-06T12:19:32;8.30;81.60
72440;DHT22;60446;50.752;4.352;2023-04-06T12:21:59;8.50;81.60
72440;DHT22;60446;50.752;4.352;2023-04-06T12:24:27;8.60;81.20
72440;DHT22;60446;50.752;4.352;2023-04-06T12:26:55;8.50;81.30
72440;DHT22;60446;50.752;4.352;2023-04-06T12:29:35;8.50;81.50
72440;DHT22;60446;50.752;4.352;2023-04-06T12:32:02;8.30;80.90
72440;DHT22;60446;50.752;4.352;2023-04-06T12:34:29;8.20;81.80
72440;DHT22;60446;50.752;4.352;2023-04-06T12:36:56;8.20;83.10
72440;DHT22;60446;50.752;4.352;2023-04-06T12:39:24;8.20;82.70
72440;DHT22;60446;50.752;4.352;2023-04-06T12:41:52;8.10;81.80
72440;DHT22;60446;50.752;4.352;2023-04-06T12:44:20;7.90;82.20
72440;DHT22;60446;50.752;4.352;2023-04-06T12:46:47;7.80;83.00
72440;DHT22;60446;50.752;4.352;2023-04-06T12:49:14;7.80;83.30
72440;DHT22;60446;50.752;4.352;2023-04-06T12:51:43;7.70;82.80
72440;DHT22;60446;50.752;4.352;2023-04-06T12:54:11;7.70;83.50
72440;DHT22;60446;50.752;4.352;2023-04-06T12:56:38;7.70;83.20
72440;DHT22;60446;50.752;4.352;2023-04-06T12:59:05;7.80;83.40
72440;DHT22;60446;50.752;4.352;2023-04-06T13:01:33;7.80;83.10
72440;DHT22;60446;50.752;4.352;2023-04-06T13:04:00;7.90;83.50
72440;DHT22;60446;50.752;4.352;2023-04-06T13:06:27;7.80;83.00
72440;DHT22;60446;50.752;4.352;2023-04-06T13:08:55;7.80;83.30
72440;DHT22;60446;50.752;4.352;2023-04-06T13:11:22;7.80;83.20
72440;DHT22;60446;50.752;4.352;2023-04-06T13:13:53;7.70;82.90
72440;DHT22;60446;50.752;4.352;2023-04-06T13:16:20;7.70;83.30
72440;DHT22;60446;50.752;4.352;2023-04-06T13:18:48;7.70;83.00
72440;DHT22;60446;50.752;4.352;2023-04-06T13:21:15;7.70;83.70
72440;DHT22;60446;50.752;4.352;2023-04-06T13:23:43;7.80;83.70
72440;DHT22;60446;50.752;4.352;2023-04-06T13:26:11;7.80;83.10
72440;DHT22;60446;50.752;4.352;2023-04-06T13:28:40;7.80;83.40
72440;DHT22;60446;50.752;4.352;2023-04-06T13:31:08;7.90;83.90
72440;DHT22;60446;50.752;4.352;2023-04-06T13:33:36;8.00;83.00
72440;DHT22;60446;50.752;4.352;2023-04-06T13:36:06;8.00;83.30
72440;DHT22;60446;50.752;4.352;2023-04-06T13:38:34;8.10;82.40
72440;DHT22;60446;50.752;4.352;2023-04-06T13:41:01;8.20;82.60
72440;DHT22;60446;50.752;4.352;2023-04-06T13:43:28;8.20;82.80
72440;DHT22;60446;50.752;4.352;2023-04-06T13:45:57;8.20;82.60
72440;DHT22;60446;50.752;4.352;2023-04-06T13:48:26;8.10;82.00
72440;DHT22;60446;50.752;4.352;2023-04-06T13:50:54;8.10;82.50
72440;DHT22;60446;50.752;4.352;2023-04-06T13:53:21;8.20;82.90
72440;DHT22;60446;50.752;4.352;2023-04-06T13:55:53;8.20;82.40
72440;DHT22;60446;50.752;4.352;2023-04-06T13:58:21;8.10;82.80
72440;DHT22;60446;50.752;4.352;2023-04-06T14:00:48;8.00;83.10
72440;DHT22;60446;50.752;4.352;2023-04-06T14:03:15;8.00;83.60
72440;DHT22;60446;50.752;4.352;2023-04-06T14:05:43;8.00;84.10
72440;DHT22;60446;50.752;4.352;2023-04-06T14:08:10;8.10;84.30
72440;DHT22;60446;50.752;4.352;2023-04-06T14:10:41;8.10;84.00
72440;DHT22;60446;50.752;4.352;2023-04-06T14:13:09;8.10;84.10
72440;DHT22;60446;50.752;4.352;2023-04-06T14:15:37;8.10;84.40
72440;DHT22;60446;50.752;4.352;2023-04-06T14:18:04;8.10;84.30
72440;DHT22;60446;50.752;4.352;2023-04-06T14:20:32;8.20;84.60
72440;DHT22;60446;50.752;4.352;2023-04-06T14:23:00;8.20;84.50
72440;DHT22;60446;50.752;4.352;2023-04-06T14:25:28;8.30;84.00
72440;DHT22;60446;50.752;4.352;2023-04-06T14:27:58;8.30;84.40
72440;DHT22;60446;50.752;4.352;2023-04-06T14:30:25;8.30;84.40
72440;DHT22;60446;50.752;4.352;2023-04-06T14:32:52;8.20;84.10
72440;DHT22;60446;50.752;4.352;2023-04-06T14:35:19;8.20;84.40
72440;DHT22;60446;50.752;4.352;2023-04-06T14:37:46;8.20;84.50
72440;DHT22;60446;50.752;4.352;2023-04-06T14:40:14;8.30;84.00
72440;DHT22;60446;50.752;4.352;2023-04-06T14:42:41;8.30;84.70
72440;DHT22;60446;50.752;4.352;2023-04-06T14:45:08;8.40;84.40
72440;DHT22;60446;50.752;4.352;2023-04-06T14:47:36;8.40;84.20
72440;DHT22;60446;50.752;4.352;2023-04-06T14:50:03;8.50;84.70
72440;DHT22;60446;50.752;4.352;2023-04-06T14:52:31;8.50;83.90
72440;DHT22;60446;50.752;4.352;2023-04-06T14:54:58;8.60;84.20
72440;DHT22;60446;50.752;4.352;2023-04-06T14:57:26;8.60;83.70
72440;DHT22;60446;50.752;4.352;2023-04-06T14:59:53;8.60;84.00
72440;DHT22;60446;50.752;4.352;2023-04-06T15:02:21;8.70;83.60
72440;DHT22;60446;50.752;4.352;2023-04-06T15:04:48;8.80;82.50
72440;DHT22;60446;50.752;4.352;2023-04-06T15:07:17;8.80;82.40
72440;DHT22;60446;50.752;4.352;2023-04-06T15:09:44;8.80;82.20
72440;DHT22;60446;50.752;4.352;2023-04-06T15:12:11;8.90;82.40
72440;DHT22;60446;50.752;4.352;2023-04-06T15:14:38;9.00;83.20
72440;DHT22;60446;50.752;4.352;2023-04-06T15:17:05;9.20;82.70
72440;DHT22;60446;50.752;4.352;2023-04-06T15:19:32;9.30;82.50
72440;DHT22;60446;50.752;4.352;2023-04-06T15:21:59;9.40;81.60
72440;DHT22;60446;50.752;4.352;2023-04-06T15:24:26;9.50;81.80
72440;DHT22;60446;50.752;4.352;2023-04-06T15:26:53;9.50;81.60
72440;DHT22;60446;50.752;4.352;2023-04-06T15:29:21;9.50;81.50
72440;DHT22;60446;50.752;4.352;2023-04-06T15:31:48;9.50;81.20
72440;DHT22;60446;50.752;4.352;2023-04-06T15:34:16;9.70;81.70
72440;DHT22;60446;50.752;4.352;2023-04-06T15:36:43;9.80;80.30
72440;DHT22;60446;50.752;4.352;2023-04-06T15:39:12;9.90;80.80
72440;DHT22;60446;50.752;4.352;2023-04-06T15:41:40;10.00;81.50
72440;DHT22;60446;50.752;4.352;2023-04-06T15:44:07;10.10;80.90
72440;DHT22;60446;50.752;4.352;2023-04-06T15:46:34;10.10;80.70
72440;DHT22;60446;50.752;4.352;2023-04-06T15:49:01;10.10;80.80
72440;DHT22;60446;50.752;4.352;2023-04-06T15:51:29;10.20;81.20
72440;DHT22;60446;50.752;4.352;2023-04-06T15:53:56;10.20;80.80
72440;DHT22;60446;50.752;4.352;2023-04-06T15:56:24;10.20;79.80
72440;DHT22;60446;50.752;4.352;2023-04-06T15:58:51;10.20;80.60
72440;DHT22;60446;50.752;4.352;2023-04-06T16:01:18;10.30;79.60
72440;DHT22;60446;50.752;4.352;2023-04-06T16:03:46;10.30;79.90